Nereus N — V3TS7 — position and weather

sailwx.info

Track history (hours):
 
Tides and Currents Weather Stations Pressure Air Temp Water Temp Dewpoint Dewpoint Depression Visibility Wind Speed Wind Dir Waves Ship Positions

Nereus N

Last reported at 2017-Nov-15 01:38 UTC. Time now 2017-Dec-14 08:23 UTC.
Position N 40°42' E 028°55'.
Warning: this ship's position is 29 days out of date.

Length 32 m; draft 4.2 m.

Type: Tug. MMSI: 312502000.

Date/timePositionNaut miles runAvg speedWind from/ knotsBaromVisibWave heightAir tempDewpointWater temp
2017-Nov-15 01:38N 40°42' E 028°55'0 1.0
2017-Nov-15 01:30N 40°42' E 028°55'4 0.6
2017-Nov-14 19:26N 40°45' E 028°57'2 1.0
2017-Nov-14 17:29N 40°46' E 028°59'1 0.6
2017-Nov-14 16:28N 40°47' E 028°59'3 1.7
2017-Nov-14 14:30N 40°48' E 029°03'4 4.5
2017-Nov-14 13:42N 40°48' E 029°08'1 4.4
2017-Nov-14 13:28N 40°48' E 029°10'2 4.3
2017-Nov-14 13:00N 40°49' E 029°12'2 4.0
2017-Nov-14 12:30N 40°50' E 029°14'1 2.5
2017-Nov-14 12:00N 40°51' E 029°16'0 0.4
2017-Nov-14 11:30N 40°51' E 029°15'0 0.4
2017-Nov-14 11:00N 40°51' E 029°16'0 0.6
2017-Nov-14 10:30N 40°51' E 029°15'0 0.1
2017-Nov-14 10:00N 40°51' E 029°15'0 0.0
2017-Nov-14 09:30N 40°51' E 029°15'0 0.0
2017-Nov-14 09:00N 40°51' E 029°15'0 0.0
2017-Nov-14 08:30N 40°51' E 029°15'0 0.0
2017-Nov-14 08:00N 40°51' E 029°15'0 0.0
2017-Nov-14 07:30N 40°51' E 029°15'0 0.0
2017-Nov-14 07:00N 40°51' E 029°15'0 0.0
2017-Nov-14 06:30N 40°51' E 029°15'0 0.0
2017-Nov-14 06:00N 40°51' E 029°15'0 0.0
2017-Nov-14 05:30N 40°51' E 029°15'0 0.0
2017-Nov-14 05:00N 40°51' E 029°15'0 0.0
2017-Nov-14 04:30N 40°51' E 029°15'0 0.0
2017-Nov-14 04:00N 40°51' E 029°15'0 0.0
2017-Nov-14 03:30N 40°51' E 029°15'0 0.0
2017-Nov-14 03:00N 40°51' E 029°15'0 0.0
2017-Nov-14 02:30N 40°51' E 029°15'0 0.0
2017-Nov-14 02:00N 40°51' E 029°15'0 0.0
2017-Nov-14 01:30N 40°51' E 029°15'0 0.0
2017-Nov-14 01:00N 40°51' E 029°15'0 0.0
2017-Nov-14 00:30N 40°51' E 029°15'0 0.0
2017-Nov-14 00:00N 40°51' E 029°15'0 0.0
2017-Nov-13 23:30N 40°51' E 029°15'0 0.0
2017-Nov-13 23:00N 40°51' E 029°15'0 0.0
2017-Nov-13 22:30N 40°51' E 029°15'0 0.0
2017-Nov-13 22:00N 40°51' E 029°15'  
Track history (hours):
 
Tides and Currents Weather Stations Pressure Air Temp Water Temp Dewpoint Dewpoint Depression Visibility Wind Speed Wind Dir Waves Ship Positions

Nereus N

Last reported at 2017-Nov-15 01:38 UTC. Time now 2017-Dec-14 08:23 UTC.
Position N 40°42' E 028°55'.
Warning: this ship's position is 29 days out of date.

Length 32 m; draft 4.2 m.

Type: Tug. MMSI: 312502000.

Date/timePositionNaut miles runAvg speedWind from/ knotsBaromVisibWave heightAir tempDewpointWater temp
2017-Nov-15 01:38N 40°42' E 028°55'0 1.0
2017-Nov-15 01:30N 40°42' E 028°55'4 0.6
2017-Nov-14 19:26N 40°45' E 028°57'2 1.0
2017-Nov-14 17:29N 40°46' E 028°59'1 0.6
2017-Nov-14 16:28N 40°47' E 028°59'3 1.7
2017-Nov-14 14:30N 40°48' E 029°03'4 4.5
2017-Nov-14 13:42N 40°48' E 029°08'1 4.4
2017-Nov-14 13:28N 40°48' E 029°10'2 4.3
2017-Nov-14 13:00N 40°49' E 029°12'2 4.0
2017-Nov-14 12:30N 40°50' E 029°14'1 2.5
2017-Nov-14 12:00N 40°51' E 029°16'0 0.4
2017-Nov-14 11:30N 40°51' E 029°15'0 0.4
2017-Nov-14 11:00N 40°51' E 029°16'0 0.6
2017-Nov-14 10:30N 40°51' E 029°15'0 0.1
2017-Nov-14 10:00N 40°51' E 029°15'0 0.0
2017-Nov-14 09:30N 40°51' E 029°15'0 0.0
2017-Nov-14 09:00N 40°51' E 029°15'0 0.0
2017-Nov-14 08:30N 40°51' E 029°15'0 0.0
2017-Nov-14 08:00N 40°51' E 029°15'0 0.0
2017-Nov-14 07:30N 40°51' E 029°15'0 0.0
2017-Nov-14 07:00N 40°51' E 029°15'0 0.0
2017-Nov-14 06:30N 40°51' E 029°15'0 0.0
2017-Nov-14 06:00N 40°51' E 029°15'0 0.0
2017-Nov-14 05:30N 40°51' E 029°15'0 0.0
2017-Nov-14 05:00N 40°51' E 029°15'0 0.0
2017-Nov-14 04:30N 40°51' E 029°15'0 0.0
2017-Nov-14 04:00N 40°51' E 029°15'0 0.0
2017-Nov-14 03:30N 40°51' E 029°15'0 0.0
2017-Nov-14 03:00N 40°51' E 029°15'0 0.0
2017-Nov-14 02:30N 40°51' E 029°15'0 0.0
2017-Nov-14 02:00N 40°51' E 029°15'0 0.0
2017-Nov-14 01:30N 40°51' E 029°15'0 0.0
2017-Nov-14 01:00N 40°51' E 029°15'0 0.0
2017-Nov-14 00:30N 40°51' E 029°15'0 0.0
2017-Nov-14 00:00N 40°51' E 029°15'0 0.0
2017-Nov-13 23:30N 40°51' E 029°15'0 0.0
2017-Nov-13 23:00N 40°51' E 029°15'0 0.0
2017-Nov-13 22:30N 40°51' E 029°15'0 0.0
2017-Nov-13 22:00N 40°51' E 029°15'  

Dump ship's entire track history